createdAt,value
2019-02-03T00:01:19.273Z,178.30
2019-02-03T00:03:48.681Z,168.13
2019-02-03T00:06:24.986Z,173.53
2019-02-03T00:08:54.801Z,165.33
2019-02-03T00:11:24.473Z,164.80
2019-02-03T00:13:54.749Z,159.63
2019-02-03T00:16:24.413Z,150.33
2019-02-03T00:18:54.098Z,147.87
2019-02-03T00:21:25.048Z,157.90
2019-02-03T00:23:55.017Z,151.47
2019-02-03T00:26:24.482Z,147.13
2019-02-03T00:28:53.833Z,151.43
2019-02-03T00:31:23.217Z,149.90
2019-02-03T00:33:52.676Z,147.50
2019-02-03T00:36:22.632Z,150.23
2019-02-03T00:38:52.051Z,143.47
2019-02-03T00:41:21.473Z,143.90
2019-02-03T00:43:51.039Z,141.23
2019-02-03T00:46:20.763Z,139.23
2019-02-03T00:48:50.410Z,142.20
2019-02-03T00:51:20.225Z,142.57
2019-02-03T00:53:49.601Z,142.93
2019-02-03T00:56:19.060Z,139.17
2019-02-03T00:58:48.529Z,141.00
2019-02-03T01:01:18.685Z,135.77
2019-02-03T01:03:48.048Z,136.90
2019-02-03T01:06:17.520Z,134.97
2019-02-03T01:08:47.269Z,136.30
2019-02-03T01:11:16.959Z,141.30
2019-02-03T01:13:46.839Z,127.63
2019-02-03T01:16:17.110Z,132.60
2019-02-03T01:18:46.630Z,126.73
2019-02-03T01:21:15.983Z,136.43
2019-02-03T01:23:46.280Z,130.00
2019-02-03T01:26:15.796Z,123.83
2019-02-03T01:28:45.818Z,127.10
2019-02-03T01:31:15.689Z,129.80
2019-02-03T01:33:45.394Z,125.80
2019-02-03T01:36:15.081Z,137.47
2019-02-03T01:38:44.566Z,128.60
2019-02-03T01:41:14.292Z,124.80
2019-02-03T01:43:44.093Z,130.70
2019-02-03T01:46:13.769Z,124.50
2019-02-03T01:48:44.370Z,122.57
2019-02-03T01:51:14.721Z,120.27
2019-02-03T01:53:45.454Z,121.03
2019-02-03T01:56:14.902Z,121.70
2019-02-03T01:58:44.613Z,125.73
2019-02-03T02:01:14.113Z,112.70
2019-02-03T02:03:43.916Z,117.87
2019-02-03T02:06:13.777Z,118.03
2019-02-03T02:08:43.493Z,119.03
2019-02-03T02:11:12.856Z,115.07
2019-02-03T02:13:42.600Z,124.67
2019-02-03T02:16:12.102Z,121.53
2019-02-03T02:18:41.645Z,113.77
2019-02-03T02:21:11.370Z,123.10
2019-02-03T02:23:40.747Z,123.30
2019-02-03T02:26:11.035Z,114.60
2019-02-03T02:28:40.634Z,131.37
2019-02-03T02:31:10.416Z,118.80
2019-02-03T02:33:39.869Z,121.63
2019-02-03T02:36:09.466Z,114.50
2019-02-03T02:38:39.061Z,114.30
2019-02-03T02:41:08.797Z,121.23
2019-02-03T02:43:38.836Z,106.93
2019-02-03T02:46:08.600Z,117.40
2019-02-03T02:48:38.368Z,111.03
2019-02-03T02:51:08.182Z,106.30
2019-02-03T02:53:37.954Z,104.40
2019-02-03T02:56:08.018Z,115.43
2019-02-03T02:58:37.829Z,107.60
2019-02-03T03:01:07.680Z,104.67
2019-02-03T03:03:37.345Z,102.33
2019-02-03T03:06:06.850Z,110.03
2019-02-03T03:08:36.988Z,99.20
2019-02-03T03:11:07.157Z,102.53
2019-02-03T03:13:36.789Z,99.87
2019-02-03T03:16:06.486Z,101.50
2019-02-03T03:18:36.492Z,96.50
2019-02-03T03:21:06.330Z,96.07
2019-02-03T03:23:36.764Z,98.33
2019-02-03T03:26:06.376Z,101.93
2019-02-03T03:28:36.785Z,96.60
2019-02-03T03:31:06.530Z,97.10
2019-02-03T03:33:36.206Z,94.70
2019-02-03T03:36:06.281Z,97.93
2019-02-03T03:38:36.081Z,94.50
2019-02-03T03:41:05.740Z,95.93
2019-02-03T03:43:35.564Z,87.63
2019-02-03T03:46:06.656Z,78.93
2019-02-03T03:48:36.233Z,80.97
2019-02-03T03:51:05.799Z,76.73
2019-02-03T03:53:35.535Z,80.03
2019-02-03T03:56:04.981Z,85.00
2019-02-03T03:58:34.905Z,86.90
2019-02-03T04:01:04.673Z,82.57
2019-02-03T04:03:34.668Z,75.47
2019-02-03T04:06:04.370Z,75.27
2019-02-03T04:08:44.755Z,73.40
2019-02-03T04:11:05.751Z,72.37
2019-02-03T04:13:35.328Z,77.70
2019-02-03T04:16:05.065Z,72.97
2019-02-03T04:18:35.061Z,70.37
2019-02-03T04:21:05.072Z,70.80
2019-02-03T04:23:34.560Z,67.47
2019-02-03T04:26:03.989Z,67.20
2019-02-03T04:28:33.589Z,64.23
2019-02-03T04:31:03.444Z,63.33
2019-02-03T04:33:33.593Z,68.70
2019-02-03T04:36:02.949Z,69.07
2019-02-03T04:38:32.838Z,65.20
2019-02-03T04:41:02.184Z,62.97
2019-02-03T04:43:32.010Z,59.90
2019-02-03T04:46:01.952Z,61.37
2019-02-03T04:48:32.145Z,58.70
2019-02-03T04:51:01.495Z,58.37
2019-02-03T04:53:31.179Z,60.33
2019-02-03T04:56:00.623Z,55.63
2019-02-03T04:58:29.919Z,60.13
2019-02-03T05:00:59.312Z,60.47
2019-02-03T05:03:29.106Z,58.73
2019-02-03T05:05:58.548Z,58.17
2019-02-03T05:08:28.473Z,52.63
2019-02-03T05:10:58.020Z,52.60
2019-02-03T05:13:27.989Z,53.23
2019-02-03T05:15:57.921Z,53.97
2019-02-03T05:18:27.603Z,50.23
2019-02-03T05:20:56.950Z,46.53
2019-02-03T05:23:26.666Z,52.93
2019-02-03T05:25:56.051Z,47.90
2019-02-03T05:28:25.486Z,48.40
2019-02-03T05:30:55.169Z,51.63
2019-02-03T05:33:24.668Z,48.63
2019-02-03T05:35:54.251Z,52.40
2019-02-03T05:38:23.711Z,48.43
2019-02-03T05:40:53.169Z,48.60
2019-02-03T05:43:23.201Z,46.97
2019-02-03T05:45:53.003Z,50.93
2019-02-03T05:48:22.918Z,43.70
2019-02-03T05:50:52.434Z,46.67
2019-02-03T05:53:22.537Z,45.57
2019-02-03T05:55:52.717Z,45.67
2019-02-03T05:58:22.166Z,44.63
2019-02-03T06:00:51.661Z,42.10
2019-02-03T06:03:21.096Z,41.37
2019-02-03T06:05:50.992Z,38.40
2019-02-03T06:08:20.480Z,44.60
2019-02-03T06:10:50.140Z,41.87
2019-02-03T06:13:19.621Z,39.90
2019-02-03T06:29:44.747Z,42.80
2019-02-03T06:32:14.895Z,42.57
2019-02-03T06:34:45.960Z,40.90
2019-02-03T06:37:15.811Z,39.27
2019-02-03T06:39:48.600Z,38.50
2019-02-03T06:42:18.035Z,41.20
2019-02-03T06:44:47.749Z,40.80
2019-02-03T06:47:18.980Z,35.77
2019-02-03T06:49:48.600Z,38.50
2019-02-03T06:52:19.919Z,35.93
2019-02-03T06:54:50.054Z,40.30
2019-02-03T06:57:19.971Z,37.77
2019-02-03T06:59:51.358Z,36.53
2019-02-03T07:02:21.638Z,38.30
2019-02-03T07:04:51.975Z,37.53
2019-02-03T07:07:22.031Z,37.67
2019-02-03T07:10:00.341Z,37.00
2019-02-03T07:12:23.552Z,38.57
2019-02-03T07:14:54.069Z,37.87
2019-02-03T07:17:23.951Z,38.87
2019-02-03T07:19:53.936Z,40.87
2019-02-03T07:22:23.994Z,40.37
2019-02-03T07:24:54.140Z,38.53
2019-02-03T07:27:23.983Z,37.73
2019-02-03T07:29:53.860Z,41.47
2019-02-03T07:32:23.691Z,41.57
2019-02-03T07:34:53.519Z,41.03
2019-02-03T07:37:24.348Z,42.13
2019-02-03T07:39:54.097Z,39.93
2019-02-03T07:42:23.807Z,44.97
2019-02-03T07:44:53.633Z,42.53
2019-02-03T07:47:23.652Z,39.87
2019-02-03T07:49:53.544Z,42.20
2019-02-03T07:52:23.627Z,52.07
2019-02-03T07:54:53.893Z,44.57
2019-02-03T07:57:26.705Z,42.73
2019-02-03T07:59:56.869Z,44.80
2019-02-03T08:02:26.820Z,45.60
2019-02-03T08:04:56.908Z,43.80
2019-02-03T08:07:27.341Z,40.23
2019-02-03T08:09:57.428Z,45.17
2019-02-03T08:12:27.352Z,42.73
2019-02-03T08:14:57.131Z,47.13
2019-02-03T08:17:27.220Z,48.73
2019-02-03T08:19:57.240Z,44.23
2019-02-03T08:22:27.304Z,43.03
2019-02-03T08:24:56.905Z,48.77
2019-02-03T08:27:26.608Z,48.07
2019-02-03T08:29:56.836Z,45.57
2019-02-03T08:32:26.628Z,46.90
2019-02-03T08:34:56.297Z,46.63
2019-02-03T08:37:26.301Z,50.17
2019-02-03T08:39:56.937Z,47.27
2019-02-03T08:42:26.796Z,45.10
2019-02-03T08:44:57.865Z,45.17
2019-02-03T08:47:28.069Z,48.40
2019-02-03T08:49:57.994Z,45.30
2019-02-03T08:52:27.792Z,47.23
2019-02-03T08:54:58.609Z,45.27
2019-02-03T08:57:28.476Z,46.10
2019-02-03T08:59:58.276Z,43.00
2019-02-03T09:02:27.932Z,40.57
2019-02-03T09:04:57.708Z,47.17
2019-02-03T09:07:28.883Z,45.77
2019-02-03T09:09:58.963Z,42.97
2019-02-03T09:12:28.592Z,43.57
2019-02-03T09:14:58.708Z,37.60
2019-02-03T09:17:28.592Z,47.63
2019-02-03T09:19:58.704Z,38.80
2019-02-03T09:22:28.751Z,34.47
2019-02-03T09:25:01.169Z,33.73
2019-02-03T09:27:31.356Z,32.10
2019-02-03T09:30:02.132Z,28.53
2019-02-03T09:32:32.240Z,31.33
2019-02-03T09:35:01.916Z,26.10
2019-02-03T09:37:32.104Z,24.13
2019-02-03T09:40:02.496Z,30.90
2019-02-03T09:42:33.369Z,22.37
2019-02-03T09:45:03.689Z,23.77
2019-02-03T09:47:33.448Z,23.83
2019-02-03T09:50:03.614Z,21.77
2019-02-03T09:52:33.411Z,18.63
2019-02-03T09:55:03.168Z,20.20
2019-02-03T09:57:33.455Z,20.57
2019-02-03T10:00:04.166Z,20.47
2019-02-03T10:02:33.871Z,17.83
2019-02-03T10:05:03.625Z,16.80
2019-02-03T10:07:34.021Z,13.67
2019-02-03T10:10:04.659Z,14.77
2019-02-03T10:12:34.756Z,16.33
2019-02-03T10:15:05.697Z,13.73
2019-02-03T10:17:35.951Z,14.90
2019-02-03T10:20:09.131Z,15.80
2019-02-03T10:22:39.335Z,16.17
2019-02-03T10:25:11.747Z,12.40
2019-02-03T10:27:43.392Z,11.83
2019-02-03T10:30:16.169Z,15.67
2019-02-03T10:32:47.272Z,17.00
2019-02-03T10:35:23.490Z,12.87
2019-02-03T10:37:51.527Z,11.93
2019-02-03T10:40:28.409Z,12.63
2019-02-03T10:42:59.664Z,12.27
2019-02-03T10:45:30.936Z,13.67
2019-02-03T10:48:01.695Z,12.17
2019-02-03T10:50:33.232Z,12.00
2019-02-03T10:53:03.889Z,14.07
2019-02-03T10:55:34.784Z,13.03
2019-02-03T10:58:05.167Z,11.60
2019-02-03T11:00:37.785Z,11.50
2019-02-03T11:03:08.220Z,10.93
2019-02-03T11:05:41.294Z,13.67
2019-02-03T11:08:12.720Z,12.10
2019-02-03T11:10:42.952Z,10.60
2019-02-03T11:13:13.087Z,11.27
2019-02-03T11:15:43.286Z,13.70
2019-02-03T11:18:13.389Z,11.07
2019-02-03T11:20:43.394Z,10.27
2019-02-03T11:23:13.914Z,8.93
2019-02-03T11:25:43.980Z,9.63
2019-02-03T11:28:13.917Z,10.03
2019-02-03T11:30:44.310Z,11.00
2019-02-03T11:33:14.722Z,9.60
2019-02-03T11:35:44.848Z,10.27
2019-02-03T11:38:16.008Z,11.23
2019-02-03T11:40:46.997Z,10.43
2019-02-03T11:43:17.241Z,10.77
2019-02-03T11:45:47.583Z,10.27
2019-02-03T11:48:20.887Z,12.60
2019-02-03T11:50:51.828Z,11.87
2019-02-03T11:53:24.472Z,9.73
2019-02-03T11:55:54.714Z,13.33
2019-02-03T11:58:24.893Z,11.27
2019-02-03T12:00:54.816Z,10.07
2019-02-03T12:03:25.767Z,9.33
2019-02-03T12:05:58.810Z,8.37
2019-02-03T12:08:29.006Z,9.63
2019-02-03T12:10:59.217Z,8.10
2019-02-03T12:13:30.866Z,10.47
2019-02-03T12:16:00.403Z,14.00
2019-02-03T12:18:30.148Z,13.67
2019-02-03T12:20:59.968Z,11.20
2019-02-03T12:23:30.389Z,9.40
2019-02-03T12:26:00.380Z,10.47
2019-02-03T12:28:30.159Z,11.77
2019-02-03T12:31:02.621Z,10.73
2019-02-03T12:33:32.373Z,9.30
2019-02-03T12:36:02.377Z,8.07
2019-02-03T12:38:32.614Z,13.27
2019-02-03T12:41:02.764Z,8.60
2019-02-03T12:43:32.416Z,9.83
2019-02-03T12:46:02.191Z,7.33
2019-02-03T12:48:32.126Z,9.60
2019-02-03T12:51:02.738Z,7.83
2019-02-03T12:53:32.558Z,9.30
2019-02-03T12:56:02.712Z,13.27
2019-02-03T12:58:32.420Z,9.13
2019-02-03T13:01:02.704Z,7.83
2019-02-03T13:03:33.043Z,9.67
2019-02-03T13:06:03.534Z,10.97
2019-02-03T13:08:33.576Z,11.97
2019-02-03T13:11:03.322Z,11.87
2019-02-03T13:13:33.625Z,13.17
2019-02-03T13:16:03.952Z,8.90
2019-02-03T13:18:33.847Z,10.67
2019-02-03T13:21:04.198Z,11.10
2019-02-03T13:23:44.584Z,8.97
2019-02-03T13:26:05.756Z,11.73
2019-02-03T13:28:37.184Z,12.50
2019-02-03T13:31:06.915Z,10.40
2019-02-03T13:33:36.809Z,9.63
2019-02-03T13:36:08.411Z,7.93
2019-02-03T13:38:38.357Z,12.83
2019-02-03T13:41:08.652Z,7.40
2019-02-03T13:43:39.143Z,10.50
2019-02-03T13:46:09.165Z,8.53
2019-02-03T13:48:39.355Z,9.63
2019-02-03T13:51:10.009Z,8.73
2019-02-03T13:53:41.306Z,11.20
2019-02-03T13:56:11.794Z,10.60
2019-02-03T13:58:42.398Z,9.00
2019-02-03T14:01:14.639Z,11.07
2019-02-03T14:03:45.181Z,11.50
2019-02-03T14:06:15.438Z,11.40
2019-02-03T14:08:45.685Z,10.97
2019-02-03T14:11:16.266Z,10.20
2019-02-03T14:13:46.833Z,14.70
2019-02-03T14:16:42.137Z,10.40
2019-02-03T14:19:12.669Z,14.03
2019-02-03T14:21:42.915Z,15.53
2019-02-03T14:24:13.155Z,14.07
2019-02-03T14:26:44.275Z,12.37
2019-02-03T14:29:15.703Z,11.43
2019-02-03T14:31:46.864Z,15.33
2019-02-03T14:34:16.895Z,12.37
2019-02-03T14:36:47.192Z,13.93
2019-02-03T14:39:18.029Z,12.43
2019-02-03T14:41:48.984Z,13.50
2019-02-03T14:44:19.165Z,12.93
2019-02-03T14:46:49.828Z,12.47
2019-02-03T14:49:20.206Z,10.23
2019-02-03T14:51:50.854Z,11.77
2019-02-03T14:54:21.261Z,10.73
2019-02-03T14:56:52.374Z,10.93
2019-02-03T14:59:22.429Z,10.97
2019-02-03T15:01:52.620Z,16.77
2019-02-03T15:04:23.316Z,12.53
2019-02-03T15:06:53.660Z,8.97
2019-02-03T15:09:24.080Z,10.00
2019-02-03T15:11:54.550Z,10.97
2019-02-03T15:14:25.249Z,9.53
2019-02-03T15:16:56.046Z,12.13
2019-02-03T15:19:28.161Z,8.87
2019-02-03T15:21:58.957Z,10.83
2019-02-03T15:24:32.451Z,8.63
2019-02-03T15:27:03.040Z,10.17
2019-02-03T15:29:33.713Z,10.07
2019-02-03T15:32:04.040Z,11.50
2019-02-03T15:34:34.376Z,10.73
2019-02-03T15:37:04.819Z,12.30
2019-02-03T15:39:35.463Z,9.23
2019-02-03T15:42:05.921Z,12.13
2019-02-03T15:44:38.873Z,15.23
2019-02-03T15:47:08.922Z,11.63
2019-02-03T15:49:39.576Z,10.40
2019-02-03T15:52:10.234Z,10.77
2019-02-03T15:54:40.764Z,13.07
2019-02-03T15:57:10.866Z,12.83
2019-02-03T15:59:41.958Z,13.40
2019-02-03T16:02:14.166Z,14.37
2019-02-03T16:04:44.751Z,11.23
2019-02-03T16:07:15.120Z,12.13
2019-02-03T16:09:45.685Z,10.83
2019-02-03T16:12:16.033Z,10.37
2019-02-03T16:14:46.454Z,12.73
2019-02-03T16:17:17.228Z,12.23
2019-02-03T16:19:47.633Z,11.33
2019-02-03T16:22:18.487Z,11.70
2019-02-03T16:24:48.967Z,13.13
2019-02-03T16:27:39.594Z,12.57
2019-02-03T16:30:21.448Z,10.90
2019-02-03T16:32:51.956Z,12.37
2019-02-03T16:35:22.606Z,10.87
2019-02-03T16:37:52.885Z,13.03
2019-02-03T16:40:25.204Z,10.63
2019-02-03T16:42:56.343Z,12.33
2019-02-03T16:45:27.153Z,11.33
2019-02-03T16:47:58.108Z,12.03
2019-02-03T16:50:30.534Z,16.70
2019-02-03T16:53:02.669Z,15.47
2019-02-03T16:55:33.113Z,11.93
2019-02-03T16:58:03.359Z,11.90
2019-02-03T17:00:34.669Z,10.80
2019-02-03T17:03:05.065Z,12.57
2019-02-03T17:05:35.290Z,12.03
2019-02-03T17:08:06.688Z,7.40
2019-02-03T17:10:37.406Z,14.07
2019-02-03T17:13:07.603Z,15.90
2019-02-03T17:15:43.970Z,15.00
2019-02-03T17:18:14.643Z,12.37
2019-02-03T17:20:46.223Z,7.80
2019-02-03T17:23:16.387Z,12.37
2019-02-03T17:25:52.088Z,11.80
2019-02-03T17:28:23.080Z,11.53
2019-02-03T17:30:53.603Z,10.63
2019-02-03T17:33:24.063Z,8.77
2019-02-03T17:35:54.948Z,15.63
2019-02-03T17:38:25.813Z,10.50
2019-02-03T17:40:56.311Z,13.70
2019-02-03T17:43:26.414Z,12.07
2019-02-03T17:45:56.835Z,11.47
2019-02-03T17:48:27.362Z,11.93
2019-02-03T17:50:57.863Z,8.33
2019-02-03T17:53:28.448Z,15.47
2019-02-03T17:55:58.732Z,6.43
2019-02-03T17:58:29.760Z,12.50
2019-02-03T18:01:01.300Z,8.00
2019-02-03T18:03:32.816Z,9.97
2019-02-03T18:06:03.984Z,11.07
2019-02-03T18:08:34.373Z,9.77
2019-02-03T18:11:05.229Z,11.73
2019-02-03T18:13:35.962Z,10.47
2019-02-03T18:16:08.442Z,14.70
2019-02-03T18:18:38.918Z,13.57
2019-02-03T18:21:09.921Z,13.67
2019-02-03T18:23:40.882Z,11.43
2019-02-03T18:26:11.126Z,8.53
2019-02-03T18:28:41.764Z,11.17
2019-02-03T18:31:12.255Z,12.97
2019-02-03T18:33:42.598Z,10.83
2019-02-03T18:36:12.964Z,11.03
2019-02-03T18:38:43.241Z,11.90
2019-02-03T18:41:13.645Z,16.97
2019-02-03T18:43:44.988Z,13.37
2019-02-03T18:46:15.599Z,16.60
2019-02-03T18:48:47.054Z,15.00
2019-02-03T18:51:17.962Z,14.03
2019-02-03T18:53:49.232Z,10.80
2019-02-03T18:56:20.822Z,12.53
2019-02-03T18:58:53.139Z,13.83
2019-02-03T19:01:24.709Z,12.13
2019-02-03T19:03:55.531Z,12.53
2019-02-03T19:06:26.880Z,16.50
2019-02-03T19:08:57.926Z,14.33
2019-02-03T19:11:28.612Z,15.77
2019-02-03T19:13:59.290Z,11.70
2019-02-03T19:16:29.901Z,16.67
2019-02-03T19:19:00.949Z,14.13
2019-02-03T19:21:33.817Z,18.47
2019-02-03T19:24:05.945Z,15.13
2019-02-03T19:26:38.517Z,13.33
2019-02-03T19:29:08.380Z,15.13
2019-02-03T19:31:39.056Z,17.77
2019-02-03T19:34:09.851Z,19.47
2019-02-03T19:36:42.523Z,14.77
2019-02-03T19:39:13.714Z,14.23
2019-02-03T19:41:44.558Z,21.00
2019-02-03T19:44:15.288Z,18.90
2019-02-03T19:46:46.274Z,18.63
2019-02-03T19:49:16.648Z,15.73
2019-02-03T19:51:47.193Z,15.37
2019-02-03T19:54:18.084Z,19.83
2019-02-03T19:56:49.790Z,19.70
2019-02-03T19:59:20.471Z,16.93
2019-02-03T20:01:50.965Z,17.87
2019-02-03T20:04:21.836Z,16.90
2019-02-03T20:06:52.453Z,22.77
2019-02-03T20:09:23.921Z,14.43
2019-02-03T20:11:54.911Z,14.03
2019-02-03T20:14:25.685Z,14.83
2019-02-03T20:16:56.674Z,17.07
2019-02-03T20:19:27.289Z,18.83
2019-02-03T20:21:58.247Z,13.57
2019-02-03T20:24:28.341Z,14.93
2019-02-03T20:26:58.740Z,16.87
2019-02-03T20:29:30.770Z,14.70
2019-02-03T20:32:01.289Z,17.53
2019-02-03T20:34:31.617Z,16.47
2019-02-03T20:37:01.789Z,18.10
2019-02-03T20:39:32.167Z,17.00
2019-02-03T20:42:02.489Z,21.07
2019-02-03T20:44:33.580Z,16.30
2019-02-03T20:47:04.216Z,28.03
2019-02-03T20:49:34.823Z,25.97
2019-02-03T20:52:05.080Z,24.57
2019-02-03T20:54:35.345Z,25.77
2019-02-03T20:57:05.262Z,15.43
2019-02-03T20:59:35.267Z,23.70
2019-02-03T21:02:06.182Z,17.17
2019-02-03T21:04:36.609Z,30.87
2019-02-03T21:07:07.009Z,46.43
2019-02-03T21:09:37.364Z,51.57
2019-02-03T21:12:09.874Z,37.10
2019-02-03T21:14:40.000Z,29.90
2019-02-03T21:17:09.834Z,31.63
2019-02-03T21:19:39.529Z,39.00
2019-02-03T21:22:09.339Z,38.63
2019-02-03T21:24:40.043Z,18.90
2019-02-03T21:27:11.423Z,16.63
2019-02-03T21:29:41.135Z,17.60
2019-02-03T21:32:11.366Z,14.67
2019-02-03T21:34:41.472Z,14.90
2019-02-03T21:37:11.629Z,12.00
2019-02-03T21:39:41.775Z,20.93
2019-02-03T21:42:12.132Z,18.30
2019-02-03T21:44:42.794Z,27.23
2019-02-03T21:47:12.911Z,24.10
2019-02-03T21:49:42.820Z,15.57
2019-02-03T21:52:12.925Z,21.43
2019-02-03T21:54:43.779Z,19.93
2019-02-03T21:57:14.626Z,19.97
2019-02-03T21:59:44.709Z,25.43
2019-02-03T22:02:17.659Z,23.33
2019-02-03T22:04:46.987Z,16.83
2019-02-03T22:07:17.340Z,21.40
2019-02-03T22:09:49.709Z,38.37
2019-02-03T22:12:19.844Z,56.67
2019-02-03T22:14:51.530Z,53.27
2019-02-03T22:17:22.764Z,26.27
2019-02-03T22:19:58.084Z,15.70
2019-02-03T22:22:28.223Z,14.67
2019-02-03T22:25:04.348Z,24.70
2019-02-03T22:27:34.685Z,23.67
2019-02-03T22:30:05.996Z,19.07
2019-02-03T22:32:36.633Z,15.87
2019-02-03T22:35:09.260Z,17.20
2019-02-03T22:37:39.623Z,20.70
2019-02-03T22:40:12.160Z,18.60
2019-02-03T22:42:43.584Z,16.97
2019-02-03T22:45:16.142Z,14.33
2019-02-03T22:47:46.343Z,17.37
2019-02-03T22:50:25.110Z,18.23
2019-02-03T22:52:55.497Z,17.83
2019-02-03T22:55:25.357Z,14.40
2019-02-03T22:57:56.965Z,16.13
2019-02-03T23:00:52.085Z,18.63
2019-02-03T23:03:24.504Z,15.77
2019-02-03T23:05:55.034Z,27.20
2019-02-03T23:08:25.019Z,18.03
2019-02-03T23:10:55.173Z,21.50
2019-02-03T23:13:25.557Z,19.07
2019-02-03T23:15:57.323Z,19.40
2019-02-03T23:18:27.867Z,16.43
2019-02-03T23:20:58.291Z,18.80
2019-02-03T23:23:28.473Z,18.83
2019-02-03T23:25:58.796Z,21.73
2019-02-03T23:28:29.196Z,23.27
2019-02-03T23:30:59.230Z,23.93
2019-02-03T23:33:30.795Z,22.03
2019-02-03T23:36:01.116Z,37.57
2019-02-03T23:38:31.235Z,26.70
2019-02-03T23:41:01.651Z,30.83
2019-02-03T23:43:31.896Z,25.10
2019-02-03T23:46:01.994Z,25.33
2019-02-03T23:48:31.674Z,27.90
2019-02-03T23:51:01.592Z,22.37
2019-02-03T23:53:31.707Z,24.23
2019-02-03T23:56:02.347Z,24.00
2019-02-03T23:58:32.783Z,22.73
